createdAt,value
2023-05-05T00:00:38.022Z,100086.06
2023-05-05T00:02:40.813Z,99992.19
2023-05-05T00:04:43.377Z,100016.50
2023-05-05T00:06:45.784Z,100062.31
2023-05-05T00:08:47.974Z,100065.00
2023-05-05T00:10:51.799Z,100023.41
2023-05-05T00:12:54.247Z,100063.47
2023-05-05T00:14:56.531Z,100052.00
2023-05-05T00:16:59.486Z,100040.63
2023-05-05T00:19:01.968Z,100011.44
2023-05-05T00:21:05.091Z,100044.41
2023-05-05T00:23:07.736Z,100027.19
2023-05-05T00:25:10.373Z,100060.31
2023-05-05T00:27:12.648Z,100059.59
2023-05-05T00:29:14.872Z,100027.81
2023-05-05T00:31:17.380Z,100019.97
2023-05-05T00:33:20.344Z,100070.69
2023-05-05T00:35:22.813Z,100083.56
2023-05-05T00:37:25.935Z,100090.56
2023-05-05T00:39:28.285Z,100029.88
2023-05-05T00:41:30.910Z,100047.03
2023-05-05T00:43:33.811Z,100016.91
2023-05-05T00:45:38.215Z,100035.44
2023-05-05T00:47:43.939Z,100044.00
2023-05-05T00:49:46.429Z,100022.72
2023-05-05T00:51:49.169Z,100048.44
2023-05-05T00:53:51.736Z,99960.09
2023-05-05T00:55:53.956Z,100008.63
2023-05-05T00:57:58.749Z,99982.94
2023-05-05T01:00:03.107Z,100053.19
2023-05-05T01:02:05.644Z,100077.22
2023-05-05T01:04:08.291Z,99997.53
2023-05-05T01:06:37.507Z,99963.97
2023-05-05T01:09:15.201Z,99969.63
2023-05-05T01:11:26.724Z,99963.75
2023-05-05T01:13:48.127Z,100015.69
2023-05-05T01:15:59.179Z,100004.84
2023-05-05T01:18:30.990Z,100079.09
2023-05-05T01:20:59.530Z,99973.84
2023-05-05T01:23:07.352Z,99978.53
2023-05-05T01:25:34.345Z,99954.41
2023-05-05T01:27:50.380Z,100069.69
2023-05-05T01:30:24.887Z,99961.09
2023-05-05T01:32:30.396Z,100011.91
2023-05-05T01:34:37.534Z,100045.72
2023-05-05T01:36:42.509Z,100085.69
2023-05-05T01:38:46.809Z,99997.72
2023-05-05T01:40:55.018Z,99977.78
2023-05-05T01:43:01.080Z,99993.28
2023-05-05T01:45:06.873Z,100046.09
2023-05-05T01:47:13.466Z,100012.91
2023-05-05T01:49:17.211Z,100035.47
2023-05-05T01:51:22.131Z,100094.75
2023-05-05T01:53:25.878Z,99989.06
2023-05-05T01:55:29.793Z,100078.97
2023-05-05T01:57:33.633Z,100054.47
2023-05-05T01:59:37.318Z,100042.81
2023-05-05T02:01:46.275Z,99994.41
2023-05-05T02:03:51.764Z,100033.47
2023-05-05T02:05:55.087Z,100049.75
2023-05-05T02:08:00.312Z,100037.81
2023-05-05T02:10:05.601Z,99992.59
2023-05-05T02:12:09.290Z,100047.03
2023-05-05T02:14:12.762Z,100065.19
2023-05-05T02:16:18.247Z,100010.84
2023-05-05T02:18:23.248Z,100010.41
2023-05-05T02:20:27.819Z,100024.88
2023-05-05T02:22:31.727Z,100037.84
2023-05-05T02:24:34.409Z,100003.88
2023-05-05T02:26:40.239Z,100080.59
2023-05-05T02:28:51.981Z,100032.31
2023-05-05T02:30:59.772Z,99961.09
2023-05-05T02:33:09.648Z,99992.22
2023-05-05T02:35:19.410Z,100025.88
2023-05-05T02:37:27.725Z,100022.16
2023-05-05T02:39:37.390Z,99982.59
2023-05-05T02:41:49.095Z,100031.97
2023-05-05T02:44:03.951Z,100030.78
2023-05-05T02:46:08.385Z,99989.47
2023-05-05T02:48:13.484Z,100037.75
2023-05-05T02:50:16.011Z,99970.31
2023-05-05T02:52:27.229Z,100009.63
2023-05-05T02:54:31.991Z,100033.13
2023-05-05T02:56:51.926Z,100052.56
2023-05-05T02:59:16.546Z,100032.00
2023-05-05T03:01:52.848Z,100035.84
2023-05-05T03:04:14.852Z,100005.84
2023-05-05T03:06:27.512Z,100072.75
2023-05-05T03:08:55.126Z,100015.13
2023-05-05T03:11:15.089Z,100033.56
2023-05-05T03:13:20.897Z,100038.94
2023-05-05T03:15:28.492Z,100034.81
2023-05-05T03:17:33.191Z,99945.75
2023-05-05T03:19:38.311Z,100022.59
2023-05-05T03:21:41.270Z,100034.19
2023-05-05T03:23:43.671Z,100006.81
2023-05-05T03:25:53.524Z,99976.59
2023-05-05T03:28:09.290Z,100046.56
2023-05-05T03:30:12.853Z,99984.47
2023-05-05T03:32:24.050Z,100014.16
2023-05-05T03:34:29.584Z,99983.00
2023-05-05T03:36:33.491Z,99959.72
2023-05-05T03:38:36.289Z,100053.09
2023-05-05T03:40:44.049Z,100021.72
2023-05-05T03:42:51.286Z,100010.81
2023-05-05T03:44:54.311Z,99999.25
2023-05-05T03:46:58.434Z,100016.84
2023-05-05T03:49:01.527Z,100041.78
2023-05-05T03:51:04.480Z,100027.97
2023-05-05T03:53:09.160Z,99983.91
2023-05-05T03:55:12.113Z,100051.81
2023-05-05T03:57:14.702Z,100000.69
2023-05-05T03:59:17.809Z,100048.59
2023-05-05T04:01:20.879Z,99972.06
2023-05-05T04:03:23.556Z,100051.94
2023-05-05T04:05:26.551Z,100041.03
2023-05-05T04:07:29.987Z,100002.97
2023-05-05T04:09:32.427Z,100014.50
2023-05-05T04:11:34.844Z,100041.88
2023-05-05T04:13:38.062Z,100072.41
2023-05-05T04:15:47.561Z,100004.06
2023-05-05T04:17:51.752Z,100084.72
2023-05-05T04:19:55.909Z,100025.16
2023-05-05T04:21:58.448Z,100029.81
2023-05-05T04:24:01.275Z,99977.09
2023-05-05T04:26:03.912Z,100000.19
2023-05-05T04:28:06.511Z,100029.50
2023-05-05T04:30:10.103Z,100046.91
2023-05-05T04:32:15.424Z,100006.53
2023-05-05T04:34:19.279Z,99990.88
2023-05-05T04:36:22.134Z,100009.22
2023-05-05T04:38:25.089Z,100067.94
2023-05-05T04:40:27.986Z,100107.38
2023-05-05T04:42:32.900Z,100123.69
2023-05-05T04:44:36.060Z,100110.09
2023-05-05T04:46:39.202Z,100079.16
2023-05-05T04:48:41.476Z,100064.13
2023-05-05T04:50:43.717Z,100052.97
2023-05-05T04:52:46.381Z,100142.50
2023-05-05T04:54:49.031Z,100037.66
2023-05-05T04:56:52.594Z,100095.72
2023-05-05T04:58:55.469Z,100072.47
2023-05-05T05:00:59.033Z,100074.16
2023-05-05T05:03:01.972Z,100110.41
2023-05-05T05:05:04.980Z,100095.53
2023-05-05T05:07:07.762Z,100092.16
2023-05-05T05:09:10.258Z,100096.97
2023-05-05T05:11:13.485Z,100080.47
2023-05-05T05:13:16.213Z,100071.72
2023-05-05T05:15:19.028Z,100127.78
2023-05-05T05:17:23.334Z,100081.06
2023-05-05T05:19:25.653Z,100043.09
2023-05-05T05:21:28.803Z,100065.16
2023-05-05T05:23:31.712Z,100104.50
2023-05-05T05:25:34.317Z,100106.03
2023-05-05T05:27:36.885Z,100072.78
2023-05-05T05:29:39.780Z,100114.94
2023-05-05T05:31:44.618Z,100061.78
2023-05-05T05:33:49.851Z,100119.00
2023-05-05T05:35:55.304Z,100087.25
2023-05-05T05:37:57.567Z,100147.75
2023-05-05T05:40:00.710Z,100095.28
2023-05-05T05:42:05.415Z,100081.41
2023-05-05T05:44:08.196Z,100092.97
2023-05-05T05:46:11.199Z,100088.25
2023-05-05T05:48:15.001Z,100090.59
2023-05-05T05:50:17.750Z,100101.03
2023-05-05T05:52:20.842Z,100086.53
2023-05-05T05:54:24.013Z,100103.31
2023-05-05T05:56:29.200Z,100148.13
2023-05-05T05:58:34.338Z,100139.09
2023-05-05T06:00:36.727Z,100128.69
2023-05-05T06:02:43.874Z,100117.75
2023-05-05T06:04:50.385Z,100061.59
2023-05-05T06:06:53.476Z,100105.28
2023-05-05T06:08:55.808Z,100065.16
2023-05-05T06:10:58.377Z,100141.25
2023-05-05T06:13:00.967Z,100111.97
2023-05-05T06:15:04.411Z,100111.34
2023-05-05T06:17:06.676Z,100126.28
2023-05-05T06:19:10.921Z,100076.44
2023-05-05T06:21:14.305Z,100106.97
2023-05-05T06:23:16.667Z,100116.31
2023-05-05T06:25:24.442Z,100142.28
2023-05-05T06:27:28.049Z,100094.50
2023-05-05T06:29:30.662Z,100139.25
2023-05-05T06:31:33.057Z,100083.81
2023-05-05T06:33:35.987Z,100110.72
2023-05-05T06:35:38.383Z,100116.56
2023-05-05T06:37:40.756Z,100111.94
2023-05-05T06:39:43.444Z,100110.69
2023-05-05T06:41:45.754Z,100108.06
2023-05-05T06:43:48.536Z,100109.31
2023-05-05T06:45:51.076Z,100135.53
2023-05-05T06:47:53.432Z,100146.34
2023-05-05T06:49:55.761Z,100109.91
2023-05-05T06:51:58.180Z,100115.88
2023-05-05T06:54:00.572Z,100113.88
2023-05-05T06:56:03.572Z,100071.19
2023-05-05T06:58:06.146Z,100099.88
2023-05-05T07:00:11.792Z,100106.75
2023-05-05T07:02:14.450Z,100046.88
2023-05-05T07:04:16.887Z,100089.75
2023-05-05T07:06:20.054Z,100077.66
2023-05-05T07:08:22.582Z,100115.25
2023-05-05T07:10:26.812Z,100112.97
2023-05-05T07:12:33.865Z,100123.25
2023-05-05T07:14:36.795Z,100086.38
2023-05-05T07:16:39.459Z,100091.03
2023-05-05T07:18:41.874Z,100081.09
2023-05-05T07:20:45.005Z,100121.97
2023-05-05T07:22:47.673Z,100078.09
2023-05-05T07:24:51.677Z,100085.81
2023-05-05T07:26:54.118Z,100069.31
2023-05-05T07:28:58.279Z,100077.91
2023-05-05T07:31:00.703Z,100075.25
2023-05-05T07:33:04.322Z,100104.94
2023-05-05T07:35:07.488Z,100092.69
2023-05-05T07:37:09.817Z,100101.75
2023-05-05T07:39:15.442Z,100096.38
2023-05-05T07:41:18.909Z,100093.31
2023-05-05T07:43:21.716Z,100063.91
2023-05-05T07:45:24.715Z,100100.97
2023-05-05T07:47:27.227Z,100084.59
2023-05-05T07:49:30.050Z,100088.50
2023-05-05T07:51:34.497Z,100064.69
2023-05-05T07:53:37.717Z,100097.69
2023-05-05T07:55:40.219Z,100063.00
2023-05-05T07:57:43.288Z,100045.03
2023-05-05T07:59:45.991Z,100089.00
2023-05-05T08:01:48.317Z,100092.75
2023-05-05T08:03:50.851Z,100080.09
2023-05-05T08:05:55.147Z,100102.53
2023-05-05T08:07:57.559Z,100079.19
2023-05-05T08:10:00.208Z,100062.16
2023-05-05T08:12:03.106Z,100076.63
2023-05-05T08:14:05.672Z,100079.41
2023-05-05T08:16:08.462Z,100066.97
2023-05-05T08:18:11.490Z,100035.69
2023-05-05T08:20:14.717Z,100063.09
2023-05-05T08:22:17.211Z,100056.88
2023-05-05T08:24:19.728Z,100053.75
2023-05-05T08:26:23.360Z,100049.19
2023-05-05T08:28:25.647Z,100062.97
2023-05-05T08:30:28.228Z,100055.69
2023-05-05T08:32:30.693Z,100089.94
2023-05-05T08:34:33.164Z,100069.16
2023-05-05T08:36:36.061Z,100052.56
2023-05-05T08:38:38.531Z,100044.69
2023-05-05T08:40:41.811Z,100060.63
2023-05-05T08:42:47.411Z,100058.41
2023-05-05T08:44:50.413Z,100066.03
2023-05-05T08:46:53.871Z,100068.66
2023-05-05T08:48:57.300Z,100065.00
2023-05-05T08:51:02.618Z,100059.50
2023-05-05T08:53:17.424Z,100041.81
2023-05-05T08:55:27.729Z,100049.56
2023-05-05T08:58:03.501Z,100057.63
2023-05-05T09:00:11.148Z,100059.13
2023-05-05T09:02:15.346Z,100039.22
2023-05-05T09:04:19.588Z,100023.72
2023-05-05T09:06:23.926Z,100069.25
2023-05-05T09:08:27.899Z,100069.09
2023-05-05T09:10:31.256Z,100069.50
2023-05-05T09:12:33.609Z,100057.91
2023-05-05T09:14:36.556Z,100001.78
2023-05-05T09:16:44.762Z,100043.88
2023-05-05T09:18:47.582Z,100049.66
2023-05-05T09:20:50.273Z,100030.41
2023-05-05T09:22:53.647Z,100058.72
2023-05-05T09:24:57.091Z,100049.34
2023-05-05T09:27:01.403Z,100002.81
2023-05-05T09:29:05.094Z,100066.03
2023-05-05T09:31:16.165Z,100071.25
2023-05-05T09:33:31.434Z,100057.41
2023-05-05T09:35:53.927Z,100060.53
2023-05-05T09:37:57.521Z,100027.97
2023-05-05T09:40:03.928Z,100017.88
2023-05-05T09:42:06.507Z,100046.66
2023-05-05T09:44:09.906Z,100052.88
2023-05-05T09:46:12.828Z,100049.88
2023-05-05T09:48:47.794Z,100066.25
2023-05-05T09:50:50.617Z,100043.22
2023-05-05T09:53:03.879Z,100032.13
2023-05-05T09:55:08.529Z,100038.34
2023-05-05T09:57:27.753Z,100033.50
2023-05-05T09:59:30.228Z,100060.13
2023-05-05T10:01:32.704Z,100016.34
2023-05-05T10:03:52.060Z,100020.34
2023-05-05T10:05:56.777Z,100020.31
2023-05-05T10:08:13.930Z,99997.91
2023-05-05T10:10:18.795Z,100025.50
2023-05-05T10:12:21.578Z,100032.97
2023-05-05T10:14:26.228Z,100014.13
2023-05-05T10:16:33.254Z,100026.56
2023-05-05T10:18:36.063Z,100044.19
2023-05-05T10:20:39.211Z,100033.22
2023-05-05T10:22:52.694Z,100031.72
2023-05-05T10:25:09.759Z,100031.88
2023-05-05T10:27:20.410Z,100022.13
2023-05-05T10:29:47.282Z,100060.03
2023-05-05T10:32:18.817Z,99989.84
2023-05-05T10:34:38.915Z,100008.34
2023-05-05T10:36:42.081Z,100042.06
2023-05-05T10:38:46.830Z,100008.06
2023-05-05T10:40:50.787Z,99967.66
2023-05-05T10:42:54.730Z,100019.72
2023-05-05T10:44:57.207Z,100007.91
2023-05-05T10:47:01.232Z,100008.56
2023-05-05T10:49:16.582Z,100000.28
2023-05-05T10:51:48.266Z,99996.47
2023-05-05T10:54:06.664Z,100015.13
2023-05-05T10:56:18.038Z,100000.72
2023-05-05T10:58:43.720Z,100019.44
2023-05-05T11:00:54.158Z,99979.16
2023-05-05T11:03:18.742Z,100024.06
2023-05-05T11:05:23.880Z,100011.16
2023-05-05T11:07:28.093Z,100004.69
2023-05-05T11:09:30.909Z,99992.34
2023-05-05T11:12:10.213Z,100006.84
2023-05-05T11:14:25.353Z,99977.97
2023-05-05T11:16:50.934Z,100000.41
2023-05-05T11:18:53.465Z,99946.59
2023-05-05T11:20:58.837Z,100015.06
2023-05-05T11:23:04.802Z,100015.75
2023-05-05T11:25:44.836Z,100016.81
2023-05-05T11:28:08.800Z,99965.28
2023-05-05T11:30:12.379Z,100011.09
2023-05-05T11:32:18.396Z,99975.38
2023-05-05T11:34:28.574Z,99936.28
2023-05-05T11:36:41.715Z,99985.97
2023-05-05T11:38:49.841Z,100007.19
2023-05-05T11:41:02.852Z,99959.97
2023-05-05T11:43:07.777Z,99969.47
2023-05-05T11:45:22.092Z,99958.84
2023-05-05T11:47:27.455Z,99937.97
2023-05-05T11:49:34.197Z,100005.53
2023-05-05T11:51:38.824Z,99975.34
2023-05-05T11:53:46.476Z,99976.66
2023-05-05T11:55:49.052Z,99949.13
2023-05-05T11:57:52.232Z,99959.81
2023-05-05T11:59:55.875Z,99994.34
2023-05-05T12:01:59.560Z,99937.53
2023-05-05T12:04:02.462Z,99982.53
2023-05-05T12:06:07.255Z,99967.38
2023-05-05T12:08:10.669Z,99959.72
2023-05-05T12:10:13.623Z,99981.53
2023-05-05T12:12:17.559Z,99990.13
2023-05-05T12:14:21.239Z,99947.47
2023-05-05T12:16:24.292Z,99969.84
2023-05-05T12:18:26.851Z,99953.16
2023-05-05T12:20:32.301Z,99953.50
2023-05-05T12:22:34.969Z,99966.63
2023-05-05T12:24:38.116Z,99965.66
2023-05-05T12:26:40.881Z,99957.91
2023-05-05T12:28:46.928Z,99961.94
2023-05-05T12:31:00.246Z,99918.47
2023-05-05T12:33:07.817Z,99961.56
2023-05-05T12:35:10.949Z,99914.50
2023-05-05T12:37:13.776Z,99948.78
2023-05-05T12:39:16.107Z,99932.38
2023-05-05T12:41:20.214Z,99907.13
2023-05-05T12:43:27.203Z,99956.47
2023-05-05T12:45:29.860Z,99924.56
2023-05-05T12:47:33.477Z,99925.19
2023-05-05T12:49:50.421Z,99942.53
2023-05-05T12:51:57.208Z,99942.16
2023-05-05T12:54:03.881Z,99937.00
2023-05-05T12:56:06.301Z,99904.06
2023-05-05T12:58:08.943Z,99931.63
2023-05-05T13:00:18.255Z,99909.34
2023-05-05T13:02:21.297Z,99932.34
2023-05-05T13:04:26.419Z,99915.19
2023-05-05T13:06:28.711Z,99899.19
2023-05-05T13:08:44.542Z,99912.75
2023-05-05T13:10:59.568Z,99878.34
2023-05-05T13:13:02.853Z,99909.59
2023-05-05T13:15:06.389Z,99858.19
2023-05-05T13:17:09.446Z,99867.31
2023-05-05T13:19:12.322Z,99885.88
2023-05-05T13:21:15.109Z,99905.84
2023-05-05T13:23:17.319Z,99892.56
2023-05-05T13:25:19.617Z,99820.47
2023-05-05T13:27:22.637Z,99875.13
2023-05-05T13:29:29.544Z,99843.47
2023-05-05T13:31:33.840Z,99868.91
2023-05-05T13:33:36.773Z,99872.94
2023-05-05T13:35:39.104Z,99863.81
2023-05-05T13:37:42.736Z,99867.66
2023-05-05T13:39:45.487Z,99890.63
2023-05-05T13:41:48.209Z,99861.09
2023-05-05T13:43:51.734Z,99866.94
2023-05-05T13:45:55.956Z,99859.38
2023-05-05T13:48:03.403Z,99858.44
2023-05-05T13:50:06.757Z,99862.00
2023-05-05T13:52:09.243Z,99857.06
2023-05-05T13:54:11.946Z,99840.50
2023-05-05T13:56:14.496Z,99849.06
2023-05-05T13:58:17.964Z,99855.28
2023-05-05T14:00:20.769Z,99846.16
2023-05-05T14:02:23.581Z,99829.13
2023-05-05T14:04:26.186Z,99817.91
2023-05-05T14:06:28.552Z,99848.94
2023-05-05T14:08:31.066Z,99803.53
2023-05-05T14:10:33.485Z,99834.91
2023-05-05T14:12:36.129Z,99830.81
2023-05-05T14:14:38.387Z,99837.97
2023-05-05T14:16:41.321Z,99832.66
2023-05-05T14:18:43.835Z,99854.75
2023-05-05T14:20:46.087Z,99838.09
2023-05-05T14:22:49.373Z,99838.94
2023-05-05T14:24:52.050Z,99839.06
2023-05-05T14:26:54.745Z,99821.81
2023-05-05T14:28:57.356Z,99862.31
2023-05-05T14:30:59.926Z,99827.69
2023-05-05T14:33:02.327Z,99844.78
2023-05-05T14:35:05.393Z,99784.94
2023-05-05T14:37:09.193Z,99829.22
2023-05-05T14:39:12.041Z,99841.13
2023-05-05T14:41:14.606Z,99841.22
2023-05-05T14:43:16.805Z,99790.31
2023-05-05T14:45:19.165Z,99862.59
2023-05-05T14:47:21.958Z,99798.22
2023-05-05T14:49:24.481Z,99816.63
2023-05-05T14:51:26.812Z,99844.25
2023-05-05T14:53:29.148Z,99824.00
2023-05-05T14:55:31.556Z,99822.47
2023-05-05T14:57:33.980Z,99802.41
2023-05-05T14:59:36.576Z,99793.72
2023-05-05T15:01:39.087Z,99792.69
2023-05-05T15:03:41.623Z,99807.25
2023-05-05T15:05:44.213Z,99800.56
2023-05-05T15:07:46.898Z,99808.63
2023-05-05T15:09:49.533Z,99841.22
2023-05-05T15:11:52.080Z,99840.06
2023-05-05T15:13:54.663Z,99793.84
2023-05-05T15:15:57.415Z,99751.31
2023-05-05T15:18:00.112Z,99832.78
2023-05-05T15:20:02.593Z,99807.31
2023-05-05T15:22:05.533Z,99816.31
2023-05-05T15:24:07.868Z,99761.28
2023-05-05T15:26:10.449Z,99779.41
2023-05-05T15:28:12.920Z,99786.72
2023-05-05T15:30:16.068Z,99779.16
2023-05-05T15:32:18.880Z,99826.25
2023-05-05T15:34:21.682Z,99816.94
2023-05-05T15:36:25.119Z,99782.25
2023-05-05T15:38:29.381Z,99790.25
2023-05-05T15:40:31.903Z,99828.75
2023-05-05T15:42:34.768Z,99793.41
2023-05-05T15:44:37.442Z,99797.22
2023-05-05T15:46:40.003Z,99800.75
2023-05-05T15:48:42.253Z,99819.81
2023-05-05T15:50:44.749Z,99779.50
2023-05-05T15:52:49.825Z,99808.13
2023-05-05T15:54:53.112Z,99804.56
2023-05-05T15:56:55.647Z,99788.56
2023-05-05T15:58:58.337Z,99773.50
2023-05-05T16:01:01.241Z,99752.59
2023-05-05T16:03:03.906Z,99745.78
2023-05-05T16:05:07.178Z,99810.81
2023-05-05T16:07:09.877Z,99790.84
2023-05-05T16:09:12.418Z,99750.00
2023-05-05T16:11:15.811Z,99764.91
2023-05-05T16:13:18.796Z,99786.13
2023-05-05T16:15:21.872Z,99756.69
2023-05-05T16:17:24.201Z,99781.09
2023-05-05T16:19:30.122Z,99767.28
2023-05-05T16:21:33.872Z,99775.03
2023-05-05T16:23:36.177Z,99716.56
2023-05-05T16:25:38.876Z,99747.81
2023-05-05T16:27:41.101Z,99760.00
2023-05-05T16:29:43.782Z,99744.56
2023-05-05T16:31:46.301Z,99749.41
2023-05-05T16:33:49.101Z,99765.25
2023-05-05T16:35:51.536Z,99763.19
2023-05-05T16:37:54.223Z,99748.94
2023-05-05T16:39:56.495Z,99749.00
2023-05-05T16:41:58.979Z,99804.63
2023-05-05T16:44:02.171Z,99748.56
2023-05-05T16:46:04.908Z,99757.31
2023-05-05T16:48:09.056Z,99730.44
2023-05-05T16:50:11.904Z,99752.19
2023-05-05T16:52:15.226Z,99797.06
2023-05-05T16:54:17.678Z,99763.53
2023-05-05T16:56:20.301Z,99789.09
2023-05-05T16:58:23.490Z,99771.16
2023-05-05T17:00:26.002Z,99760.97
2023-05-05T17:02:28.704Z,99777.38
2023-05-05T17:04:31.248Z,99766.56
2023-05-05T17:06:33.665Z,99780.75
2023-05-05T17:08:36.019Z,99729.59
2023-05-05T17:10:38.301Z,99776.91
2023-05-05T17:12:41.217Z,99722.63
2023-05-05T17:14:45.258Z,99785.34
2023-05-05T17:16:48.074Z,99798.13
2023-05-05T17:18:50.311Z,99773.84
2023-05-05T17:20:52.745Z,99799.22
2023-05-05T17:22:56.357Z,99770.09
2023-05-05T17:24:59.198Z,99756.75
2023-05-05T17:27:02.283Z,99761.50
2023-05-05T17:29:04.722Z,99774.13
2023-05-05T17:31:07.081Z,99760.22
2023-05-05T17:33:09.796Z,99766.72
2023-05-05T17:35:12.539Z,99749.91
2023-05-05T17:37:14.960Z,99775.53
2023-05-05T17:39:17.901Z,99752.03
2023-05-05T17:41:20.430Z,99781.34
2023-05-05T17:43:22.954Z,99729.41
2023-05-05T17:45:25.618Z,99766.28
2023-05-05T17:47:28.341Z,99790.66
2023-05-05T17:49:31.157Z,99762.38
2023-05-05T17:51:33.521Z,99738.84
2023-05-05T17:53:36.168Z,99780.31
2023-05-05T17:55:38.508Z,99755.56
2023-05-05T17:57:40.950Z,99767.16
2023-05-05T17:59:43.421Z,99711.31
2023-05-05T18:01:46.162Z,99809.88
2023-05-05T18:03:49.280Z,99738.34
2023-05-05T18:05:51.851Z,99739.50
2023-05-05T18:07:54.380Z,99800.38
2023-05-05T18:09:57.287Z,99765.97
2023-05-05T18:11:59.721Z,99830.00
2023-05-05T18:14:02.314Z,99812.25
2023-05-05T18:16:05.678Z,99784.97
2023-05-05T18:18:08.390Z,99799.34
2023-05-05T18:20:12.001Z,99784.63
2023-05-05T18:22:15.277Z,99795.91
2023-05-05T18:24:20.378Z,99810.13
2023-05-05T18:26:23.433Z,99799.03
2023-05-05T18:28:26.259Z,99792.63
2023-05-05T18:30:29.066Z,99836.09
2023-05-05T18:32:31.936Z,99762.03
2023-05-05T18:34:35.312Z,99827.56
2023-05-05T18:36:37.790Z,99837.53
2023-05-05T18:38:40.626Z,99811.34
2023-05-05T18:40:43.559Z,99751.44
2023-05-05T18:42:46.598Z,99803.34
2023-05-05T18:44:49.483Z,99817.88
2023-05-05T18:46:52.044Z,99854.13
2023-05-05T18:48:54.954Z,99851.66
2023-05-05T18:51:04.551Z,99787.22
2023-05-05T18:53:07.883Z,99826.41
2023-05-05T18:55:10.818Z,99838.13
2023-05-05T18:57:14.400Z,99786.28
2023-05-05T18:59:17.304Z,99839.53
2023-05-05T19:01:20.748Z,99776.66
2023-05-05T19:03:23.659Z,99785.19
2023-05-05T19:05:28.272Z,99871.03
2023-05-05T19:07:35.485Z,99764.88
2023-05-05T19:09:54.276Z,99860.16
2023-05-05T19:11:57.108Z,99823.09
2023-05-05T19:13:59.806Z,99782.78
2023-05-05T19:16:02.975Z,99804.03
2023-05-05T19:18:07.536Z,99838.72
2023-05-05T19:20:10.723Z,99853.31
2023-05-05T19:22:13.616Z,99762.53
2023-05-05T19:24:16.433Z,99822.28
2023-05-05T19:26:19.031Z,99837.38
2023-05-05T19:28:22.072Z,99835.03
2023-05-05T19:30:24.847Z,99883.00
2023-05-05T19:32:27.899Z,99813.94
2023-05-05T19:34:30.382Z,99813.94
2023-05-05T19:36:34.069Z,99843.09
2023-05-05T19:38:37.617Z,99820.91
2023-05-05T19:40:41.388Z,99852.59
2023-05-05T19:42:44.422Z,99790.53
2023-05-05T19:44:47.411Z,99822.47
2023-05-05T19:46:50.360Z,99824.16
2023-05-05T19:48:53.230Z,99831.53
2023-05-05T19:50:55.916Z,99821.13
2023-05-05T19:52:58.499Z,99804.81
2023-05-05T19:55:01.373Z,99835.91
2023-05-05T19:57:04.387Z,99836.84
2023-05-05T19:59:07.047Z,99828.44
2023-05-05T20:01:10.404Z,99845.22
2023-05-05T20:03:13.563Z,99823.97
2023-05-05T20:05:17.913Z,99779.88
2023-05-05T20:07:21.254Z,99829.72
2023-05-05T20:09:23.738Z,99826.31
2023-05-05T20:11:26.450Z,99804.22
2023-05-05T20:13:28.988Z,99825.38
2023-05-05T20:15:32.741Z,99822.38
2023-05-05T20:17:35.757Z,99850.38
2023-05-05T20:19:38.611Z,99845.88
2023-05-05T20:21:41.412Z,99746.81
2023-05-05T20:23:45.814Z,99778.59
2023-05-05T20:25:48.404Z,99764.28
2023-05-05T20:27:51.133Z,99824.00
2023-05-05T20:29:53.917Z,99805.00
2023-05-05T20:31:57.199Z,99770.22
2023-05-05T20:33:59.750Z,99778.16
2023-05-05T20:36:02.222Z,99788.66
2023-05-05T20:38:05.018Z,99830.72
2023-05-05T20:40:08.613Z,99790.44
2023-05-05T20:42:11.329Z,99759.44
2023-05-05T20:44:14.029Z,99798.47
2023-05-05T20:46:17.166Z,99836.63
2023-05-05T20:48:20.169Z,99752.50
2023-05-05T20:50:23.468Z,99846.84
2023-05-05T20:52:25.998Z,99773.13
2023-05-05T20:54:34.679Z,99720.78
2023-05-05T20:56:37.227Z,99787.34
2023-05-05T20:58:39.550Z,99811.13
2023-05-05T21:00:42.704Z,99805.94
2023-05-05T21:02:45.463Z,99813.72
2023-05-05T21:04:48.473Z,99793.91
2023-05-05T21:06:50.964Z,99795.97
2023-05-05T21:08:53.472Z,99743.09
2023-05-05T21:10:56.328Z,99816.31
2023-05-05T21:12:59.028Z,99795.25
2023-05-05T21:15:01.819Z,99749.06
2023-05-05T21:17:04.243Z,99766.53
2023-05-05T21:19:06.951Z,99804.25
2023-05-05T21:21:09.452Z,99790.72
2023-05-05T21:23:12.035Z,99824.91
2023-05-05T21:25:20.263Z,99790.03
2023-05-05T21:27:23.182Z,99743.81
2023-05-05T21:29:26.293Z,99759.41
2023-05-05T21:31:29.307Z,99785.34
2023-05-05T21:33:31.782Z,99719.38
2023-05-05T21:35:34.376Z,99770.56
2023-05-05T21:37:39.844Z,99750.78
2023-05-05T21:39:42.828Z,99796.81
2023-05-05T21:41:45.564Z,99802.81
2023-05-05T21:43:47.976Z,99771.09
2023-05-05T21:46:02.541Z,99774.22
2023-05-05T21:48:06.589Z,99835.63
2023-05-05T21:50:10.499Z,99791.47
2023-05-05T21:52:13.258Z,99803.63
2023-05-05T21:54:16.084Z,99805.81
2023-05-05T21:56:18.276Z,99792.69
2023-05-05T21:58:21.071Z,99737.50
2023-05-05T22:00:24.078Z,99777.94
2023-05-05T22:02:26.590Z,99734.22
2023-05-05T22:04:29.662Z,99755.78
2023-05-05T22:06:50.500Z,99770.53
2023-05-05T22:08:53.311Z,99766.97
2023-05-05T22:10:56.104Z,99788.03
2023-05-05T22:12:58.525Z,99768.47
2023-05-05T22:15:01.360Z,99811.22
2023-05-05T22:17:03.842Z,99798.22
2023-05-05T22:19:07.315Z,99786.59
2023-05-05T22:21:10.266Z,99709.16
2023-05-05T22:23:14.344Z,99700.63
2023-05-05T22:25:17.162Z,99796.47
2023-05-05T22:27:19.488Z,99771.97
2023-05-05T22:29:21.794Z,99710.31
2023-05-05T22:31:24.568Z,99780.19
2023-05-05T22:33:27.538Z,99790.03
2023-05-05T22:35:30.020Z,99789.72
2023-05-05T22:37:32.459Z,99791.63
2023-05-05T22:39:34.949Z,99781.19
2023-05-05T22:41:37.884Z,99751.91
2023-05-05T22:43:40.391Z,99807.25
2023-05-05T22:45:43.917Z,99765.78
2023-05-05T22:47:46.573Z,99770.28
2023-05-05T22:49:49.041Z,99764.66
2023-05-05T22:51:52.227Z,99753.97
2023-05-05T22:53:54.754Z,99723.66
2023-05-05T22:55:58.693Z,99747.34
2023-05-05T22:58:01.234Z,99796.28
2023-05-05T23:00:05.297Z,99786.38
2023-05-05T23:02:08.147Z,99780.63
2023-05-05T23:04:11.002Z,99813.97
2023-05-05T23:06:13.552Z,99725.69
2023-05-05T23:08:15.897Z,99814.59
2023-05-05T23:10:18.608Z,99762.19
2023-05-05T23:12:21.154Z,99730.19
2023-05-05T23:14:23.404Z,99721.75
2023-05-05T23:16:26.165Z,99804.00
2023-05-05T23:18:28.577Z,99800.09
2023-05-05T23:20:31.064Z,99796.03
2023-05-05T23:22:33.364Z,99781.97
2023-05-05T23:24:35.839Z,99743.53
2023-05-05T23:26:38.139Z,99686.03
2023-05-05T23:28:40.551Z,99752.94
2023-05-05T23:30:43.366Z,99725.47
2023-05-05T23:32:46.258Z,99763.16
2023-05-05T23:34:48.865Z,99751.69
2023-05-05T23:36:51.346Z,99783.69
2023-05-05T23:41:10.558Z,99737.69
2023-05-05T23:43:13.249Z,99761.78
2023-05-05T23:45:17.532Z,99731.22
2023-05-05T23:47:21.360Z,99665.56
2023-05-05T23:49:25.236Z,99699.09
2023-05-05T23:51:27.621Z,99728.41
2023-05-05T23:53:30.396Z,99770.94
2023-05-05T23:55:33.025Z,99734.88
2023-05-05T23:57:36.389Z,99729.38
2023-05-05T23:59:39.637Z,99699.78
